sensor_id;sensor_type;location;lat;lon;timestamp;P1;durP1;ratioP1;P2;durP2;ratioP2
26965;SDS011;14522;52.068;4.414;2022-12-11T00:00:19;21.85;;;14.20;;
26965;SDS011;14522;52.068;4.414;2022-12-11T00:02:46;22.35;;;14.70;;
26965;SDS011;14522;52.068;4.414;2022-12-11T00:05:12;22.13;;;14.13;;
26965;SDS011;14522;52.068;4.414;2022-12-11T00:07:39;20.63;;;13.38;;
26965;SDS011;14522;52.068;4.414;2022-12-11T00:10:05;19.48;;;13.45;;
26965;SDS011;14522;52.068;4.414;2022-12-11T00:12:32;19.55;;;12.88;;
26965;SDS011;14522;52.068;4.414;2022-12-11T00:14:58;17.70;;;12.02;;
26965;SDS011;14522;52.068;4.414;2022-12-11T00:17:25;16.70;;;12.20;;
26965;SDS011;14522;52.068;4.414;2022-12-11T00:19:51;16.63;;;11.20;;
26965;SDS011;14522;52.068;4.414;2022-12-11T00:22:17;17.85;;;11.50;;
26965;SDS011;14522;52.068;4.414;2022-12-11T00:24:44;16.25;;;10.80;;
26965;SDS011;14522;52.068;4.414;2022-12-11T00:27:10;18.80;;;11.40;;
26965;SDS011;14522;52.068;4.414;2022-12-11T00:29:36;17.23;;;11.57;;
26965;SDS011;14522;52.068;4.414;2022-12-11T00:32:03;16.98;;;12.27;;
26965;SDS011;14522;52.068;4.414;2022-12-11T00:34:29;18.25;;;11.07;;
26965;SDS011;14522;52.068;4.414;2022-12-11T00:36:56;17.30;;;11.65;;
26965;SDS011;14522;52.068;4.414;2022-12-11T00:39:24;16.00;;;11.23;;
26965;SDS011;14522;52.068;4.414;2022-12-11T00:41:50;14.80;;;10.75;;
26965;SDS011;14522;52.068;4.414;2022-12-11T00:44:17;14.23;;;9.95;;
26965;SDS011;14522;52.068;4.414;2022-12-11T00:46:43;13.75;;;9.23;;
26965;SDS011;14522;52.068;4.414;2022-12-11T00:49:09;13.30;;;9.77;;
26965;SDS011;14522;52.068;4.414;2022-12-11T00:51:36;13.18;;;9.65;;
26965;SDS011;14522;52.068;4.414;2022-12-11T00:54:02;14.10;;;9.75;;
26965;SDS011;14522;52.068;4.414;2022-12-11T00:56:28;16.42;;;9.95;;
26965;SDS011;14522;52.068;4.414;2022-12-11T00:58:55;12.10;;;9.10;;
26965;SDS011;14522;52.068;4.414;2022-12-11T01:01:22;12.00;;;8.55;;
26965;SDS011;14522;52.068;4.414;2022-12-11T01:03:48;13.93;;;9.82;;
26965;SDS011;14522;52.068;4.414;2022-12-11T01:06:16;12.95;;;9.75;;
26965;SDS011;14522;52.068;4.414;2022-12-11T01:08:43;12.90;;;9.80;;
26965;SDS011;14522;52.068;4.414;2022-12-11T01:11:11;14.52;;;9.48;;
26965;SDS011;14522;52.068;4.414;2022-12-11T01:13:38;14.45;;;10.27;;
26965;SDS011;14522;52.068;4.414;2022-12-11T01:16:06;13.00;;;9.13;;
26965;SDS011;14522;52.068;4.414;2022-12-11T01:18:33;13.60;;;9.43;;
26965;SDS011;14522;52.068;4.414;2022-12-11T01:20:59;13.88;;;9.30;;
26965;SDS011;14522;52.068;4.414;2022-12-11T01:23:29;14.23;;;10.40;;
26965;SDS011;14522;52.068;4.414;2022-12-11T01:25:56;16.30;;;11.55;;
26965;SDS011;14522;52.068;4.414;2022-12-11T01:28:22;16.20;;;11.63;;
26965;SDS011;14522;52.068;4.414;2022-12-11T01:30:48;16.50;;;10.82;;
26965;SDS011;14522;52.068;4.414;2022-12-11T01:33:15;16.13;;;11.52;;
26965;SDS011;14522;52.068;4.414;2022-12-11T01:35:41;15.70;;;11.68;;
26965;SDS011;14522;52.068;4.414;2022-12-11T01:38:08;17.77;;;12.00;;
26965;SDS011;14522;52.068;4.414;2022-12-11T01:40:35;19.35;;;12.30;;
26965;SDS011;14522;52.068;4.414;2022-12-11T01:43:01;17.05;;;12.18;;
26965;SDS011;14522;52.068;4.414;2022-12-11T01:45:38;16.45;;;11.98;;
26965;SDS011;14522;52.068;4.414;2022-12-11T01:48:15;17.15;;;12.35;;
26965;SDS011;14522;52.068;4.414;2022-12-11T01:50:44;17.02;;;11.63;;
26965;SDS011;14522;52.068;4.414;2022-12-11T01:53:13;17.63;;;12.50;;
26965;SDS011;14522;52.068;4.414;2022-12-11T01:55:41;21.08;;;12.90;;
26965;SDS011;14522;52.068;4.414;2022-12-11T01:58:07;18.25;;;12.73;;
26965;SDS011;14522;52.068;4.414;2022-12-11T02:00:35;18.70;;;12.43;;
26965;SDS011;14522;52.068;4.414;2022-12-11T02:03:01;16.50;;;11.57;;
26965;SDS011;14522;52.068;4.414;2022-12-11T02:05:27;17.20;;;11.23;;
26965;SDS011;14522;52.068;4.414;2022-12-11T02:07:55;18.67;;;12.77;;
26965;SDS011;14522;52.068;4.414;2022-12-11T02:10:24;17.67;;;12.98;;
26965;SDS011;14522;52.068;4.414;2022-12-11T02:18:29;18.55;;;12.95;;
26965;SDS011;14522;52.068;4.414;2022-12-11T02:21:31;19.95;;;13.40;;
26965;SDS011;14522;52.068;4.414;2022-12-11T02:28:45;19.27;;;13.95;;
26965;SDS011;14522;52.068;4.414;2022-12-11T02:31:16;21.35;;;14.25;;
26965;SDS011;14522;52.068;4.414;2022-12-11T02:33:48;20.85;;;14.57;;
26965;SDS011;14522;52.068;4.414;2022-12-11T02:36:17;21.30;;;14.05;;
26965;SDS011;14522;52.068;4.414;2022-12-11T02:38:45;21.13;;;14.82;;
26965;SDS011;14522;52.068;4.414;2022-12-11T02:41:16;22.45;;;14.15;;
26965;SDS011;14522;52.068;4.414;2022-12-11T02:43:43;23.58;;;14.40;;
26965;SDS011;14522;52.068;4.414;2022-12-11T02:46:10;23.92;;;15.32;;
26965;SDS011;14522;52.068;4.414;2022-12-11T02:48:37;23.02;;;15.20;;
26965;SDS011;14522;52.068;4.414;2022-12-11T02:51:04;22.95;;;15.77;;
26965;SDS011;14522;52.068;4.414;2022-12-11T02:53:32;23.80;;;15.82;;
26965;SDS011;14522;52.068;4.414;2022-12-11T02:56:03;23.35;;;16.30;;
26965;SDS011;14522;52.068;4.414;2022-12-11T02:58:32;24.95;;;16.33;;
26965;SDS011;14522;52.068;4.414;2022-12-11T03:00:58;26.60;;;16.35;;
26965;SDS011;14522;52.068;4.414;2022-12-11T03:03:26;25.55;;;16.65;;
26965;SDS011;14522;52.068;4.414;2022-12-11T03:05:53;24.48;;;15.75;;
26965;SDS011;14522;52.068;4.414;2022-12-11T03:08:20;26.17;;;17.50;;
26965;SDS011;14522;52.068;4.414;2022-12-11T03:10:46;27.40;;;17.60;;
26965;SDS011;14522;52.068;4.414;2022-12-11T03:13:13;23.60;;;16.10;;
26965;SDS011;14522;52.068;4.414;2022-12-11T03:18:29;24.58;;;15.98;;
26965;SDS011;14522;52.068;4.414;2022-12-11T03:21:07;23.17;;;14.60;;
26965;SDS011;14522;52.068;4.414;2022-12-11T03:23:48;23.05;;;14.82;;
26965;SDS011;14522;52.068;4.414;2022-12-11T03:26:16;25.00;;;15.55;;
26965;SDS011;14522;52.068;4.414;2022-12-11T03:28:44;24.98;;;15.35;;
26965;SDS011;14522;52.068;4.414;2022-12-11T03:31:13;23.77;;;14.88;;
26965;SDS011;14522;52.068;4.414;2022-12-11T03:33:42;21.60;;;14.52;;
26965;SDS011;14522;52.068;4.414;2022-12-11T03:36:17;26.35;;;15.27;;
26965;SDS011;14522;52.068;4.414;2022-12-11T03:38:46;26.85;;;15.75;;
26965;SDS011;14522;52.068;4.414;2022-12-11T03:41:17;25.00;;;15.75;;
26965;SDS011;14522;52.068;4.414;2022-12-11T03:43:45;24.30;;;15.35;;
26965;SDS011;14522;52.068;4.414;2022-12-11T03:46:11;24.45;;;14.90;;
26965;SDS011;14522;52.068;4.414;2022-12-11T03:48:39;22.88;;;14.55;;
26965;SDS011;14522;52.068;4.414;2022-12-11T03:51:07;22.02;;;13.43;;
26965;SDS011;14522;52.068;4.414;2022-12-11T03:53:33;23.38;;;14.27;;
26965;SDS011;14522;52.068;4.414;2022-12-11T03:56:01;25.40;;;14.75;;
26965;SDS011;14522;52.068;4.414;2022-12-11T03:58:28;18.95;;;12.38;;
26965;SDS011;14522;52.068;4.414;2022-12-11T04:00:54;20.00;;;13.32;;
26965;SDS011;14522;52.068;4.414;2022-12-11T04:03:21;20.58;;;12.88;;
26965;SDS011;14522;52.068;4.414;2022-12-11T04:05:50;18.65;;;11.77;;
26965;SDS011;14522;52.068;4.414;2022-12-11T04:08:17;22.75;;;12.35;;
26965;SDS011;14522;52.068;4.414;2022-12-11T04:10:44;19.30;;;12.05;;
26965;SDS011;14522;52.068;4.414;2022-12-11T04:13:10;18.15;;;11.88;;
26965;SDS011;14522;52.068;4.414;2022-12-11T04:15:37;18.38;;;11.15;;
26965;SDS011;14522;52.068;4.414;2022-12-11T04:18:03;16.65;;;10.32;;
26965;SDS011;14522;52.068;4.414;2022-12-11T04:20:51;16.80;;;10.77;;
26965;SDS011;14522;52.068;4.414;2022-12-11T04:23:36;16.98;;;10.23;;
26965;SDS011;14522;52.068;4.414;2022-12-11T04:26:21;16.20;;;10.07;;
26965;SDS011;14522;52.068;4.414;2022-12-11T04:28:47;18.70;;;11.15;;
26965;SDS011;14522;52.068;4.414;2022-12-11T04:31:15;14.82;;;10.15;;
26965;SDS011;14522;52.068;4.414;2022-12-11T04:33:42;17.92;;;11.20;;
26965;SDS011;14522;52.068;4.414;2022-12-11T04:36:09;15.93;;;10.25;;
26965;SDS011;14522;52.068;4.414;2022-12-11T04:38:36;18.40;;;11.15;;
26965;SDS011;14522;52.068;4.414;2022-12-11T04:41:03;14.48;;;9.57;;
26965;SDS011;14522;52.068;4.414;2022-12-11T04:43:30;15.50;;;9.75;;
26965;SDS011;14522;52.068;4.414;2022-12-11T04:46:03;18.75;;;10.35;;
26965;SDS011;14522;52.068;4.414;2022-12-11T04:48:29;17.92;;;10.13;;
26965;SDS011;14522;52.068;4.414;2022-12-11T04:50:56;15.50;;;10.20;;
26965;SDS011;14522;52.068;4.414;2022-12-11T04:53:23;14.57;;;10.23;;
26965;SDS011;14522;52.068;4.414;2022-12-11T04:55:49;17.02;;;9.95;;
26965;SDS011;14522;52.068;4.414;2022-12-11T04:58:16;16.45;;;10.55;;
26965;SDS011;14522;52.068;4.414;2022-12-11T05:00:42;16.27;;;10.35;;
26965;SDS011;14522;52.068;4.414;2022-12-11T05:03:09;15.63;;;10.63;;
26965;SDS011;14522;52.068;4.414;2022-12-11T05:05:35;17.02;;;10.65;;
26965;SDS011;14522;52.068;4.414;2022-12-11T05:08:01;14.75;;;9.15;;
26965;SDS011;14522;52.068;4.414;2022-12-11T05:10:28;15.13;;;9.80;;
26965;SDS011;14522;52.068;4.414;2022-12-11T05:12:54;13.70;;;9.18;;
26965;SDS011;14522;52.068;4.414;2022-12-11T05:15:20;15.57;;;9.30;;
26965;SDS011;14522;52.068;4.414;2022-12-11T05:17:47;13.25;;;8.80;;
26965;SDS011;14522;52.068;4.414;2022-12-11T05:20:13;15.35;;;10.02;;
26965;SDS011;14522;52.068;4.414;2022-12-11T05:22:40;14.50;;;9.05;;
26965;SDS011;14522;52.068;4.414;2022-12-11T05:25:06;13.00;;;8.88;;
26965;SDS011;14522;52.068;4.414;2022-12-11T05:27:33;14.55;;;9.07;;
26965;SDS011;14522;52.068;4.414;2022-12-11T05:29:59;16.48;;;9.25;;
26965;SDS011;14522;52.068;4.414;2022-12-11T05:32:26;14.82;;;8.82;;
26965;SDS011;14522;52.068;4.414;2022-12-11T05:34:52;13.73;;;8.40;;
26965;SDS011;14522;52.068;4.414;2022-12-11T05:37:18;11.63;;;7.90;;
26965;SDS011;14522;52.068;4.414;2022-12-11T05:39:45;14.70;;;8.48;;
26965;SDS011;14522;52.068;4.414;2022-12-11T05:42:11;14.77;;;8.48;;
26965;SDS011;14522;52.068;4.414;2022-12-11T05:44:37;11.40;;;8.07;;
26965;SDS011;14522;52.068;4.414;2022-12-11T05:47:04;14.02;;;7.93;;
26965;SDS011;14522;52.068;4.414;2022-12-11T05:49:30;12.25;;;8.05;;
26965;SDS011;14522;52.068;4.414;2022-12-11T05:51:56;11.88;;;7.68;;
26965;SDS011;14522;52.068;4.414;2022-12-11T05:54:23;13.75;;;8.60;;
26965;SDS011;14522;52.068;4.414;2022-12-11T05:56:49;13.88;;;8.10;;
26965;SDS011;14522;52.068;4.414;2022-12-11T05:59:16;12.07;;;8.05;;
26965;SDS011;14522;52.068;4.414;2022-12-11T06:01:44;12.98;;;8.88;;
26965;SDS011;14522;52.068;4.414;2022-12-11T06:04:11;13.95;;;8.38;;
26965;SDS011;14522;52.068;4.414;2022-12-11T06:06:38;12.65;;;8.23;;
26965;SDS011;14522;52.068;4.414;2022-12-11T06:09:05;14.70;;;8.88;;
26965;SDS011;14522;52.068;4.414;2022-12-11T06:11:32;15.55;;;9.25;;
26965;SDS011;14522;52.068;4.414;2022-12-11T06:14:00;13.70;;;8.38;;
26965;SDS011;14522;52.068;4.414;2022-12-11T06:16:26;12.50;;;8.57;;
26965;SDS011;14522;52.068;4.414;2022-12-11T06:18:53;15.93;;;9.30;;
26965;SDS011;14522;52.068;4.414;2022-12-11T06:21:27;12.88;;;8.73;;
26965;SDS011;14522;52.068;4.414;2022-12-11T06:23:55;13.35;;;8.63;;
26965;SDS011;14522;52.068;4.414;2022-12-11T06:26:22;12.25;;;8.63;;
26965;SDS011;14522;52.068;4.414;2022-12-11T06:28:49;14.52;;;9.15;;
26965;SDS011;14522;52.068;4.414;2022-12-11T06:31:16;13.00;;;8.75;;
26965;SDS011;14522;52.068;4.414;2022-12-11T06:33:42;15.32;;;9.40;;
26965;SDS011;14522;52.068;4.414;2022-12-11T06:36:10;14.85;;;9.73;;
26965;SDS011;14522;52.068;4.414;2022-12-11T06:38:37;16.50;;;10.52;;
26965;SDS011;14522;52.068;4.414;2022-12-11T06:41:04;14.93;;;9.85;;
26965;SDS011;14522;52.068;4.414;2022-12-11T06:43:31;16.90;;;10.50;;
26965;SDS011;14522;52.068;4.414;2022-12-11T06:45:57;17.95;;;10.18;;
26965;SDS011;14522;52.068;4.414;2022-12-11T06:48:29;18.38;;;10.60;;
26965;SDS011;14522;52.068;4.414;2022-12-11T06:50:56;20.48;;;11.18;;
26965;SDS011;14522;52.068;4.414;2022-12-11T06:53:22;18.08;;;11.45;;
26965;SDS011;14522;52.068;4.414;2022-12-11T06:55:49;17.80;;;11.60;;
26965;SDS011;14522;52.068;4.414;2022-12-11T06:58:15;16.88;;;10.63;;
26965;SDS011;14522;52.068;4.414;2022-12-11T07:00:41;20.98;;;11.55;;
26965;SDS011;14522;52.068;4.414;2022-12-11T07:03:08;18.08;;;11.50;;
26965;SDS011;14522;52.068;4.414;2022-12-11T07:05:35;18.77;;;10.93;;
26965;SDS011;14522;52.068;4.414;2022-12-11T07:08:01;19.95;;;11.32;;
26965;SDS011;14522;52.068;4.414;2022-12-11T07:10:28;16.20;;;10.10;;
26965;SDS011;14522;52.068;4.414;2022-12-11T07:12:54;18.65;;;12.35;;
26965;SDS011;14522;52.068;4.414;2022-12-11T07:15:20;20.77;;;11.90;;
26965;SDS011;14522;52.068;4.414;2022-12-11T07:17:47;17.60;;;11.02;;
26965;SDS011;14522;52.068;4.414;2022-12-11T07:20:13;18.27;;;11.13;;
26965;SDS011;14522;52.068;4.414;2022-12-11T07:22:39;19.20;;;11.73;;
26965;SDS011;14522;52.068;4.414;2022-12-11T07:25:11;19.98;;;11.57;;
26965;SDS011;14522;52.068;4.414;2022-12-11T07:27:38;17.23;;;10.65;;
26965;SDS011;14522;52.068;4.414;2022-12-11T07:30:05;18.98;;;11.10;;
26965;SDS011;14522;52.068;4.414;2022-12-11T07:32:31;18.40;;;11.38;;
26965;SDS011;14522;52.068;4.414;2022-12-11T07:34:58;17.15;;;10.60;;
26965;SDS011;14522;52.068;4.414;2022-12-11T07:37:24;19.08;;;11.18;;
26965;SDS011;14522;52.068;4.414;2022-12-11T07:39:51;18.08;;;10.82;;
26965;SDS011;14522;52.068;4.414;2022-12-11T07:42:17;18.30;;;10.45;;
26965;SDS011;14522;52.068;4.414;2022-12-11T07:44:43;19.48;;;11.32;;
26965;SDS011;14522;52.068;4.414;2022-12-11T07:47:10;17.73;;;11.00;;
26965;SDS011;14522;52.068;4.414;2022-12-11T07:49:36;19.17;;;11.77;;
26965;SDS011;14522;52.068;4.414;2022-12-11T07:52:03;16.45;;;9.60;;
26965;SDS011;14522;52.068;4.414;2022-12-11T07:54:29;16.52;;;10.30;;
26965;SDS011;14522;52.068;4.414;2022-12-11T07:56:56;16.60;;;10.18;;
26965;SDS011;14522;52.068;4.414;2022-12-11T07:59:22;17.98;;;11.20;;
26965;SDS011;14522;52.068;4.414;2022-12-11T08:01:49;15.50;;;10.05;;
26965;SDS011;14522;52.068;4.414;2022-12-11T08:04:15;17.30;;;11.02;;
26965;SDS011;14522;52.068;4.414;2022-12-11T08:06:41;16.30;;;10.35;;
26965;SDS011;14522;52.068;4.414;2022-12-11T08:09:09;15.82;;;10.98;;
26965;SDS011;14522;52.068;4.414;2022-12-11T08:11:44;17.35;;;10.77;;
26965;SDS011;14522;52.068;4.414;2022-12-11T08:14:10;17.00;;;11.02;;
26965;SDS011;14522;52.068;4.414;2022-12-11T08:16:36;18.60;;;10.13;;
26965;SDS011;14522;52.068;4.414;2022-12-11T08:19:05;18.55;;;10.75;;
26965;SDS011;14522;52.068;4.414;2022-12-11T08:21:31;16.02;;;10.25;;
26965;SDS011;14522;52.068;4.414;2022-12-11T08:23:57;16.20;;;10.20;;
26965;SDS011;14522;52.068;4.414;2022-12-11T08:26:25;17.52;;;10.25;;
26965;SDS011;14522;52.068;4.414;2022-12-11T08:28:52;14.73;;;8.90;;
26965;SDS011;14522;52.068;4.414;2022-12-11T08:31:19;14.90;;;9.43;;
26965;SDS011;14522;52.068;4.414;2022-12-11T08:33:46;15.77;;;9.45;;
26965;SDS011;14522;52.068;4.414;2022-12-11T08:36:13;15.90;;;9.85;;
26965;SDS011;14522;52.068;4.414;2022-12-11T08:38:40;14.15;;;9.27;;
26965;SDS011;14522;52.068;4.414;2022-12-11T08:43:33;15.15;;;9.00;;
26965;SDS011;14522;52.068;4.414;2022-12-11T08:46:00;15.38;;;9.00;;
26965;SDS011;14522;52.068;4.414;2022-12-11T08:48:26;15.70;;;9.50;;
26965;SDS011;14522;52.068;4.414;2022-12-11T08:50:53;12.88;;;8.68;;
26965;SDS011;14522;52.068;4.414;2022-12-11T08:53:19;14.20;;;9.05;;
26965;SDS011;14522;52.068;4.414;2022-12-11T08:55:45;17.58;;;9.38;;
26965;SDS011;14522;52.068;4.414;2022-12-11T08:58:12;15.23;;;9.60;;
26965;SDS011;14522;52.068;4.414;2022-12-11T09:00:40;14.18;;;9.18;;
26965;SDS011;14522;52.068;4.414;2022-12-11T09:03:06;17.08;;;10.57;;
26965;SDS011;14522;52.068;4.414;2022-12-11T09:05:38;16.08;;;9.43;;
26965;SDS011;14522;52.068;4.414;2022-12-11T09:08:05;15.05;;;9.80;;
26965;SDS011;14522;52.068;4.414;2022-12-11T09:10:32;15.30;;;10.23;;
26965;SDS011;14522;52.068;4.414;2022-12-11T09:12:58;19.48;;;11.05;;
26965;SDS011;14522;52.068;4.414;2022-12-11T09:15:24;16.40;;;10.15;;
26965;SDS011;14522;52.068;4.414;2022-12-11T09:17:51;16.27;;;9.63;;
26965;SDS011;14522;52.068;4.414;2022-12-11T09:20:17;16.35;;;10.32;;
26965;SDS011;14522;52.068;4.414;2022-12-11T09:22:44;16.75;;;9.48;;
26965;SDS011;14522;52.068;4.414;2022-12-11T09:25:10;17.08;;;10.30;;
26965;SDS011;14522;52.068;4.414;2022-12-11T09:27:37;18.00;;;11.35;;
26965;SDS011;14522;52.068;4.414;2022-12-11T09:30:03;16.67;;;11.02;;
26965;SDS011;14522;52.068;4.414;2022-12-11T09:32:30;19.17;;;12.60;;
26965;SDS011;14522;52.068;4.414;2022-12-11T09:34:56;20.63;;;12.88;;
26965;SDS011;14522;52.068;4.414;2022-12-11T09:37:22;21.13;;;12.52;;
26965;SDS011;14522;52.068;4.414;2022-12-11T09:39:50;19.70;;;12.40;;
26965;SDS011;14522;52.068;4.414;2022-12-11T09:44:47;20.50;;;12.68;;
26965;SDS011;14522;52.068;4.414;2022-12-11T09:47:32;19.23;;;11.18;;
26965;SDS011;14522;52.068;4.414;2022-12-11T09:50:02;21.45;;;13.27;;
26965;SDS011;14522;52.068;4.414;2022-12-11T09:55:23;22.45;;;13.32;;
26965;SDS011;14522;52.068;4.414;2022-12-11T09:57:59;24.10;;;14.65;;
26965;SDS011;14522;52.068;4.414;2022-12-11T10:00:36;23.38;;;14.00;;
26965;SDS011;14522;52.068;4.414;2022-12-11T10:10:40;23.98;;;12.85;;
26965;SDS011;14522;52.068;4.414;2022-12-11T10:18:19;24.55;;;14.27;;
26965;SDS011;14522;52.068;4.414;2022-12-11T10:20:49;21.58;;;13.63;;
26965;SDS011;14522;52.068;4.414;2022-12-11T10:23:18;22.83;;;13.85;;
26965;SDS011;14522;52.068;4.414;2022-12-11T10:25:47;24.80;;;13.95;;
26965;SDS011;14522;52.068;4.414;2022-12-11T10:28:15;26.25;;;15.05;;
26965;SDS011;14522;52.068;4.414;2022-12-11T10:33:34;23.65;;;15.20;;
26965;SDS011;14522;52.068;4.414;2022-12-11T10:35:59;23.88;;;14.73;;
26965;SDS011;14522;52.068;4.414;2022-12-11T10:38:27;25.70;;;15.30;;
26965;SDS011;14522;52.068;4.414;2022-12-11T10:40:55;25.20;;;15.20;;
26965;SDS011;14522;52.068;4.414;2022-12-11T10:43:33;26.58;;;14.85;;
26965;SDS011;14522;52.068;4.414;2022-12-11T10:45:59;24.45;;;14.25;;
26965;SDS011;14522;52.068;4.414;2022-12-11T10:48:26;23.98;;;14.70;;
26965;SDS011;14522;52.068;4.414;2022-12-11T10:51:00;30.08;;;15.60;;
26965;SDS011;14522;52.068;4.414;2022-12-11T10:53:27;23.52;;;14.73;;
26965;SDS011;14522;52.068;4.414;2022-12-11T10:55:54;31.13;;;14.98;;
26965;SDS011;14522;52.068;4.414;2022-12-11T10:58:24;23.35;;;14.00;;
26965;SDS011;14522;52.068;4.414;2022-12-11T11:01:04;25.20;;;15.27;;
26965;SDS011;14522;52.068;4.414;2022-12-11T11:03:32;24.60;;;14.70;;
26965;SDS011;14522;52.068;4.414;2022-12-11T11:06:11;28.63;;;14.38;;
26965;SDS011;14522;52.068;4.414;2022-12-11T11:08:40;23.77;;;15.13;;
26965;SDS011;14522;52.068;4.414;2022-12-11T11:11:12;23.55;;;15.13;;
26965;SDS011;14522;52.068;4.414;2022-12-11T11:13:44;24.23;;;14.65;;
26965;SDS011;14522;52.068;4.414;2022-12-11T11:16:12;25.92;;;15.55;;
26965;SDS011;14522;52.068;4.414;2022-12-11T11:18:39;25.20;;;14.68;;
26965;SDS011;14522;52.068;4.414;2022-12-11T11:21:06;26.00;;;14.68;;
26965;SDS011;14522;52.068;4.414;2022-12-11T11:23:32;25.80;;;13.82;;
26965;SDS011;14522;52.068;4.414;2022-12-11T11:26:00;29.48;;;15.13;;
26965;SDS011;14522;52.068;4.414;2022-12-11T11:28:32;26.10;;;15.27;;
26965;SDS011;14522;52.068;4.414;2022-12-11T11:31:01;26.58;;;15.38;;
26965;SDS011;14522;52.068;4.414;2022-12-11T11:33:28;28.15;;;16.05;;
26965;SDS011;14522;52.068;4.414;2022-12-11T11:35:57;27.02;;;15.60;;
26965;SDS011;14522;52.068;4.414;2022-12-11T11:38:25;26.65;;;15.00;;
26965;SDS011;14522;52.068;4.414;2022-12-11T11:40:54;24.50;;;13.70;;
26965;SDS011;14522;52.068;4.414;2022-12-11T11:43:36;23.48;;;15.25;;
26965;SDS011;14522;52.068;4.414;2022-12-11T11:46:11;25.13;;;14.48;;
26965;SDS011;14522;52.068;4.414;2022-12-11T11:49:13;26.23;;;15.07;;
26965;SDS011;14522;52.068;4.414;2022-12-11T11:51:42;26.13;;;14.32;;
26965;SDS011;14522;52.068;4.414;2022-12-11T11:56:55;27.02;;;14.88;;
26965;SDS011;14522;52.068;4.414;2022-12-11T11:59:35;24.83;;;14.98;;
26965;SDS011;14522;52.068;4.414;2022-12-11T12:02:12;25.35;;;15.07;;
26965;SDS011;14522;52.068;4.414;2022-12-11T12:04:40;23.17;;;13.38;;
26965;SDS011;14522;52.068;4.414;2022-12-11T12:09:58;24.55;;;14.10;;
26965;SDS011;14522;52.068;4.414;2022-12-11T12:17:56;23.00;;;12.93;;
26965;SDS011;14522;52.068;4.414;2022-12-11T12:20:27;28.60;;;13.35;;
26965;SDS011;14522;52.068;4.414;2022-12-11T12:25:38;24.70;;;12.93;;
26965;SDS011;14522;52.068;4.414;2022-12-11T12:38:38;22.08;;;13.10;;
26965;SDS011;14522;52.068;4.414;2022-12-11T12:46:37;16.75;;;9.82;;
26965;SDS011;14522;52.068;4.414;2022-12-11T12:49:06;23.65;;;14.35;;
26965;SDS011;14522;52.068;4.414;2022-12-11T12:51:34;20.67;;;11.85;;
26965;SDS011;14522;52.068;4.414;2022-12-11T12:54:01;22.40;;;12.73;;
26965;SDS011;14522;52.068;4.414;2022-12-11T12:56:35;21.35;;;11.82;;
26965;SDS011;14522;52.068;4.414;2022-12-11T12:59:02;19.33;;;11.32;;
26965;SDS011;14522;52.068;4.414;2022-12-11T13:01:29;18.17;;;10.70;;
26965;SDS011;14522;52.068;4.414;2022-12-11T13:04:00;21.63;;;12.57;;
26965;SDS011;14522;52.068;4.414;2022-12-11T13:06:28;18.40;;;10.70;;
26965;SDS011;14522;52.068;4.414;2022-12-11T13:08:55;22.15;;;12.63;;
26965;SDS011;14522;52.068;4.414;2022-12-11T13:11:29;22.48;;;12.35;;
26965;SDS011;14522;52.068;4.414;2022-12-11T13:14:01;20.77;;;11.85;;
26965;SDS011;14522;52.068;4.414;2022-12-11T13:16:40;26.63;;;14.18;;
26965;SDS011;14522;52.068;4.414;2022-12-11T13:21:53;26.00;;;15.82;;
26965;SDS011;14522;52.068;4.414;2022-12-11T13:26:46;27.25;;;15.13;;
26965;SDS011;14522;52.068;4.414;2022-12-11T13:31:58;29.10;;;16.38;;
26965;SDS011;14522;52.068;4.414;2022-12-11T13:34:26;28.85;;;16.42;;
26965;SDS011;14522;52.068;4.414;2022-12-11T13:36:54;25.33;;;16.15;;
26965;SDS011;14522;52.068;4.414;2022-12-11T13:41:47;26.00;;;15.93;;
26965;SDS011;14522;52.068;4.414;2022-12-11T13:44:23;23.77;;;14.80;;
26965;SDS011;14522;52.068;4.414;2022-12-11T13:46:51;22.83;;;14.00;;
26965;SDS011;14522;52.068;4.414;2022-12-11T13:49:23;25.83;;;15.63;;
26965;SDS011;14522;52.068;4.414;2022-12-11T13:51:50;26.63;;;15.57;;
26965;SDS011;14522;52.068;4.414;2022-12-11T13:54:17;29.10;;;15.85;;
26965;SDS011;14522;52.068;4.414;2022-12-11T13:56:54;23.45;;;15.48;;
26965;SDS011;14522;52.068;4.414;2022-12-11T13:59:25;25.25;;;15.15;;
26965;SDS011;14522;52.068;4.414;2022-12-11T14:01:52;22.80;;;14.40;;
26965;SDS011;14522;52.068;4.414;2022-12-11T14:04:20;23.05;;;13.95;;
26965;SDS011;14522;52.068;4.414;2022-12-11T14:06:47;23.60;;;14.27;;
26965;SDS011;14522;52.068;4.414;2022-12-11T14:09:15;20.58;;;13.63;;
26965;SDS011;14522;52.068;4.414;2022-12-11T14:11:43;23.25;;;12.82;;
26965;SDS011;14522;52.068;4.414;2022-12-11T14:14:18;19.05;;;12.32;;
26965;SDS011;14522;52.068;4.414;2022-12-11T14:16:46;17.77;;;11.20;;
26965;SDS011;14522;52.068;4.414;2022-12-11T14:19:15;16.23;;;10.10;;
26965;SDS011;14522;52.068;4.414;2022-12-11T14:21:42;17.27;;;10.23;;
26965;SDS011;14522;52.068;4.414;2022-12-11T14:24:19;16.20;;;10.13;;
26965;SDS011;14522;52.068;4.414;2022-12-11T14:26:49;16.95;;;10.93;;
26965;SDS011;14522;52.068;4.414;2022-12-11T14:31:54;19.60;;;11.48;;
26965;SDS011;14522;52.068;4.414;2022-12-11T14:34:26;19.55;;;11.02;;
26965;SDS011;14522;52.068;4.414;2022-12-11T14:36:54;19.88;;;11.20;;
26965;SDS011;14522;52.068;4.414;2022-12-11T14:41:48;16.55;;;10.77;;
26965;SDS011;14522;52.068;4.414;2022-12-11T14:44:18;16.25;;;10.57;;
26965;SDS011;14522;52.068;4.414;2022-12-11T14:46:50;15.63;;;10.38;;
26965;SDS011;14522;52.068;4.414;2022-12-11T14:49:20;18.08;;;10.88;;
26965;SDS011;14522;52.068;4.414;2022-12-11T14:51:48;21.45;;;11.52;;
26965;SDS011;14522;52.068;4.414;2022-12-11T14:57:18;22.77;;;11.07;;
26965;SDS011;14522;52.068;4.414;2022-12-11T14:59:45;19.60;;;11.23;;
26965;SDS011;14522;52.068;4.414;2022-12-11T15:05:10;18.42;;;11.18;;
26965;SDS011;14522;52.068;4.414;2022-12-11T15:07:37;20.10;;;11.55;;
26965;SDS011;14522;52.068;4.414;2022-12-11T15:10:04;22.48;;;11.98;;
26965;SDS011;14522;52.068;4.414;2022-12-11T15:12:30;18.73;;;10.60;;
26965;SDS011;14522;52.068;4.414;2022-12-11T15:14:58;18.48;;;11.75;;
26965;SDS011;14522;52.068;4.414;2022-12-11T15:17:26;22.17;;;12.52;;
26965;SDS011;14522;52.068;4.414;2022-12-11T15:19:54;19.23;;;11.70;;
26965;SDS011;14522;52.068;4.414;2022-12-11T15:22:21;24.05;;;11.70;;
26965;SDS011;14522;52.068;4.414;2022-12-11T15:24:51;17.70;;;11.50;;
26965;SDS011;14522;52.068;4.414;2022-12-11T15:29:54;23.58;;;13.48;;
26965;SDS011;14522;52.068;4.414;2022-12-11T15:32:20;21.90;;;12.23;;
26965;SDS011;14522;52.068;4.414;2022-12-11T15:37:26;20.80;;;12.35;;
26965;SDS011;14522;52.068;4.414;2022-12-11T15:39:53;21.65;;;12.05;;
26965;SDS011;14522;52.068;4.414;2022-12-11T15:42:30;21.75;;;12.20;;
26965;SDS011;14522;52.068;4.414;2022-12-11T15:44:57;25.92;;;13.38;;
26965;SDS011;14522;52.068;4.414;2022-12-11T15:47:25;21.50;;;12.68;;
26965;SDS011;14522;52.068;4.414;2022-12-11T15:49:56;21.98;;;12.82;;
26965;SDS011;14522;52.068;4.414;2022-12-11T15:52:23;23.20;;;12.40;;
26965;SDS011;14522;52.068;4.414;2022-12-11T15:54:50;24.45;;;13.60;;
26965;SDS011;14522;52.068;4.414;2022-12-11T15:57:18;23.38;;;12.95;;
26965;SDS011;14522;52.068;4.414;2022-12-11T15:59:45;24.38;;;12.45;;
26965;SDS011;14522;52.068;4.414;2022-12-11T16:02:14;24.38;;;12.90;;